Observations for Trim Patrick St
| Time | AQI | Temp °C | Hum % | Pres Pa | CO μg/m³ | H₂S μg/m³ | NO μg/m³ | NO₂ μg/m³ | O₃ μg/m³ | SO₂ μg/m³ | PM1 μg/m³ | PM2.5 μg/m³ | PM10 μg/m³ |
|---|---|---|---|---|---|---|---|---|---|---|---|---|---|
| Sunday 2 August 2026 | |||||||||||||
| 18:24 | 3 | 20.8 | 51 | 68,853 | 0 | 27.12 | 1.18 | 66.94 | 52.44 | 7.42 | 8 | 15.51 | 17.06 |
| 18:21 | 3 | 20.9 | 50 | 68,853 | 0 | 23.85 | 1.18 | 59.43 | 56.42 | 6.81 | 3.71 | 8.73 | 9.6 |
| 18:20 | 3 | 20.9 | 50 | 68,859 | 0 | 22.96 | 1.18 | 52.24 | 76.73 | 6.68 | 3.71 | 7.94 | 8.73 |
| 18:19 | 3 | 20.9 | 50 | 68,841 | 0 | 19.95 | 1.12 | 49.45 | 56.54 | 5.5 | 2.86 | 8.7 | 9.57 |
| 18:18 | 3 | 21 | 50 | 68,847 | 0 | 20.85 | 1.16 | 54.57 | 60.14 | 6.39 | 3.71 | 8.71 | 9.58 |
| 18:17 | 3 | 21 | 49 | 68,851 | 0 | 20.29 | 1.13 | 43.07 | 55.68 | 5.89 | 3.71 | 8.75 | 9.63 |
| 18:16 | 3 | 21.1 | 49 | 68,835 | 0 | 25.04 | 1.04 | 72.48 | 53.2 | 6.64 | 2.86 | 7.22 | 7.94 |
| 18:15 | 3 | 21.1 | 49 | 68,835 | 0 | 19.45 | 0.97 | 38.25 | 58.67 | 5.79 | 3.71 | 8.77 | 9.65 |
| 18:14 | 3 | 21.2 | 49 | 68,837 | 0 | 26.28 | 1.05 | 60.52 | 69.19 | 7.48 | 2.86 | 8.01 | 8.81 |
| 18:13 | 3 | 21.2 | 49 | 68,841 | 0 | 23.96 | 1.02 | 62.12 | 70.52 | 6.99 | 3.71 | 8.77 | 9.65 |
| 18:12 | 3 | 21.3 | 49 | 68,849 | 0 | 22.35 | 0.99 | 52.85 | 53.52 | 6.51 | 2.86 | 7.98 | 8.78 |
| 18:11 | 3 | 21.4 | 48 | 68,861 | 0 | 24.17 | 0.97 | 58.46 | 64.44 | 7.06 | 2.86 | 8.04 | 8.85 |
| 18:10 | 3 | 21.4 | 48 | 68,847 | 0 | 24.28 | 0.98 | 53.29 | 80.1 | 7.41 | 4.57 | 10.35 | 11.38 |
| 18:09 | 3 | 21.5 | 48 | 68,855 | 0 | 22.96 | 0.95 | 56.48 | 62.47 | 6.77 | 3.71 | 9.63 | 10.59 |
| 18:08 | 3 | 21.6 | 48 | 68,863 | 0 | 23.88 | 0.91 | 57.22 | 70.24 | 7.64 | 4.57 | 10.41 | 11.45 |
| 18:07 | 3 | 21.7 | 47 | 68,851 | 0 | 22.27 | 0.91 | 52.8 | 67.74 | 7.15 | 3.71 | 9.67 | 10.63 |
| 18:06 | 3 | 21.7 | 47 | 68,835 | 0 | 24.46 | 0.98 | 54.78 | 81.95 | 7.31 | 3.71 | 8.12 | 8.93 |
| 18:05 | 3 | 21.9 | 47 | 68,843 | 0 | 21.8 | 0.98 | 33.76 | 62.47 | 6.86 | 3.71 | 8.89 | 9.78 |
| 18:04 | 3 | 22 | 47 | 68,855 | 0 | 29.67 | 0.96 | 70.58 | 102.77 | 8.07 | 3.71 | 8.89 | 9.78 |
| 18:03 | 3 | 22.1 | 47 | 68,865 | 0 | 29.35 | 0.92 | 52.56 | 72.21 | 8.73 | 2.86 | 8.93 | 9.82 |